sensor_id;sensor_type;location;lat;lon;timestamp;P1;durP1;ratioP1;P2;durP2;ratioP2
60169;SDS011;46042;49.444;6.862;2023-09-19T00:00:41;6.43;;;3.10;;
60169;SDS011;46042;49.444;6.862;2023-09-19T00:03:08;8.15;;;3.00;;
60169;SDS011;46042;49.444;6.862;2023-09-19T00:05:36;6.30;;;2.70;;
60169;SDS011;46042;49.444;6.862;2023-09-19T00:08:11;10.43;;;3.10;;
60169;SDS011;46042;49.444;6.862;2023-09-19T00:10:40;9.32;;;3.40;;
60169;SDS011;46042;49.444;6.862;2023-09-19T00:13:09;16.92;;;3.33;;
60169;SDS011;46042;49.444;6.862;2023-09-19T00:15:44;8.55;;;3.15;;
60169;SDS011;46042;49.444;6.862;2023-09-19T00:18:16;11.52;;;3.60;;
60169;SDS011;46042;49.444;6.862;2023-09-19T00:20:50;8.98;;;2.72;;
60169;SDS011;46042;49.444;6.862;2023-09-19T00:23:19;6.15;;;3.20;;
60169;SDS011;46042;49.444;6.862;2023-09-19T00:25:46;12.55;;;4.07;;
60169;SDS011;46042;49.444;6.862;2023-09-19T00:28:13;8.73;;;3.53;;
60169;SDS011;46042;49.444;6.862;2023-09-19T00:30:42;9.25;;;3.33;;
60169;SDS011;46042;49.444;6.862;2023-09-19T00:33:09;10.85;;;3.20;;
60169;SDS011;46042;49.444;6.862;2023-09-19T00:35:37;9.90;;;3.20;;
60169;SDS011;46042;49.444;6.862;2023-09-19T00:38:04;7.65;;;3.10;;
60169;SDS011;46042;49.444;6.862;2023-09-19T00:40:33;8.75;;;3.55;;
60169;SDS011;46042;49.444;6.862;2023-09-19T00:43:01;6.72;;;3.58;;
60169;SDS011;46042;49.444;6.862;2023-09-19T00:45:28;6.05;;;3.22;;
60169;SDS011;46042;49.444;6.862;2023-09-19T00:47:56;7.05;;;3.42;;
60169;SDS011;46042;49.444;6.862;2023-09-19T00:50:24;9.82;;;3.42;;
60169;SDS011;46042;49.444;6.862;2023-09-19T00:52:54;10.32;;;3.85;;
60169;SDS011;46042;49.444;6.862;2023-09-19T00:55:25;10.95;;;3.60;;
60169;SDS011;46042;49.444;6.862;2023-09-19T00:57:52;9.85;;;3.97;;
60169;SDS011;46042;49.444;6.862;2023-09-19T01:00:22;15.25;;;3.78;;
60169;SDS011;46042;49.444;6.862;2023-09-19T01:02:50;9.55;;;3.45;;
60169;SDS011;46042;49.444;6.862;2023-09-19T01:05:17;8.52;;;3.70;;
60169;SDS011;46042;49.444;6.862;2023-09-19T01:07:44;8.38;;;3.72;;
60169;SDS011;46042;49.444;6.862;2023-09-19T01:10:12;6.25;;;3.20;;
60169;SDS011;46042;49.444;6.862;2023-09-19T01:15:17;8.80;;;3.45;;
60169;SDS011;46042;49.444;6.862;2023-09-19T01:21:14;5.95;;;3.05;;
60169;SDS011;46042;49.444;6.862;2023-09-19T01:31:59;13.32;;;3.10;;
60169;SDS011;46042;49.444;6.862;2023-09-19T01:37:16;19.50;;;3.47;;
60169;SDS011;46042;49.444;6.862;2023-09-19T01:39:50;9.18;;;3.78;;
60169;SDS011;46042;49.444;6.862;2023-09-19T01:42:41;16.27;;;3.53;;
60169;SDS011;46042;49.444;6.862;2023-09-19T01:45:37;7.65;;;3.50;;
60169;SDS011;46042;49.444;6.862;2023-09-19T01:48:35;10.65;;;3.10;;
60169;SDS011;46042;49.444;6.862;2023-09-19T01:51:37;8.23;;;3.22;;
60169;SDS011;46042;49.444;6.862;2023-09-19T01:54:13;8.38;;;3.60;;
60169;SDS011;46042;49.444;6.862;2023-09-19T01:56:52;15.60;;;3.80;;
60169;SDS011;46042;49.444;6.862;2023-09-19T01:59:28;8.00;;;3.50;;
60169;SDS011;46042;49.444;6.862;2023-09-19T02:02:01;10.93;;;3.95;;
60169;SDS011;46042;49.444;6.862;2023-09-19T02:04:32;11.02;;;2.70;;
60169;SDS011;46042;49.444;6.862;2023-09-19T02:07:01;7.82;;;3.75;;
60169;SDS011;46042;49.444;6.862;2023-09-19T02:09:29;8.35;;;3.20;;
60169;SDS011;46042;49.444;6.862;2023-09-19T02:11:55;10.20;;;4.20;;
60169;SDS011;46042;49.444;6.862;2023-09-19T02:14:23;10.18;;;3.33;;
60169;SDS011;46042;49.444;6.862;2023-09-19T02:16:49;6.55;;;2.80;;
60169;SDS011;46042;49.444;6.862;2023-09-19T02:19:17;10.95;;;3.58;;
60169;SDS011;46042;49.444;6.862;2023-09-19T02:21:43;7.78;;;3.30;;
60169;SDS011;46042;49.444;6.862;2023-09-19T02:24:10;9.02;;;3.33;;
60169;SDS011;46042;49.444;6.862;2023-09-19T02:26:37;10.18;;;3.35;;
60169;SDS011;46042;49.444;6.862;2023-09-19T02:29:03;12.93;;;3.50;;
60169;SDS011;46042;49.444;6.862;2023-09-19T02:31:31;11.00;;;3.50;;
60169;SDS011;46042;49.444;6.862;2023-09-19T02:33:58;8.50;;;3.15;;
60169;SDS011;46042;49.444;6.862;2023-09-19T02:36:26;13.27;;;3.90;;
60169;SDS011;46042;49.444;6.862;2023-09-19T02:38:53;7.10;;;3.38;;
60169;SDS011;46042;49.444;6.862;2023-09-19T02:41:20;14.93;;;3.40;;
60169;SDS011;46042;49.444;6.862;2023-09-19T02:43:46;10.88;;;3.33;;
60169;SDS011;46042;49.444;6.862;2023-09-19T02:46:13;11.65;;;3.47;;
60169;SDS011;46042;49.444;6.862;2023-09-19T02:48:40;11.30;;;3.85;;
60169;SDS011;46042;49.444;6.862;2023-09-19T02:51:08;13.30;;;4.05;;
60169;SDS011;46042;49.444;6.862;2023-09-19T02:53:34;6.95;;;3.45;;
60169;SDS011;46042;49.444;6.862;2023-09-19T02:56:02;8.23;;;3.42;;
60169;SDS011;46042;49.444;6.862;2023-09-19T02:58:30;12.90;;;3.08;;
60169;SDS011;46042;49.444;6.862;2023-09-19T03:01:11;9.10;;;3.15;;
60169;SDS011;46042;49.444;6.862;2023-09-19T03:03:39;12.45;;;3.65;;
60169;SDS011;46042;49.444;6.862;2023-09-19T03:06:07;14.15;;;3.83;;
60169;SDS011;46042;49.444;6.862;2023-09-19T03:08:35;5.82;;;3.20;;
60169;SDS011;46042;49.444;6.862;2023-09-19T03:11:04;12.27;;;3.67;;
60169;SDS011;46042;49.444;6.862;2023-09-19T03:13:32;5.00;;;2.67;;
60169;SDS011;46042;49.444;6.862;2023-09-19T03:15:59;7.28;;;3.20;;
60169;SDS011;46042;49.444;6.862;2023-09-19T03:18:26;7.70;;;3.33;;
60169;SDS011;46042;49.444;6.862;2023-09-19T03:20:54;5.88;;;2.75;;
60169;SDS011;46042;49.444;6.862;2023-09-19T03:23:22;10.50;;;2.88;;
60169;SDS011;46042;49.444;6.862;2023-09-19T03:25:49;11.65;;;3.42;;
60169;SDS011;46042;49.444;6.862;2023-09-19T03:28:16;6.60;;;3.22;;
60169;SDS011;46042;49.444;6.862;2023-09-19T03:30:44;6.50;;;2.75;;
60169;SDS011;46042;49.444;6.862;2023-09-19T03:36:58;7.18;;;2.65;;
60169;SDS011;46042;49.444;6.862;2023-09-19T03:39:26;8.10;;;2.90;;
60169;SDS011;46042;49.444;6.862;2023-09-19T03:41:52;15.95;;;3.33;;
60169;SDS011;46042;49.444;6.862;2023-09-19T03:44:19;5.75;;;2.53;;
60169;SDS011;46042;49.444;6.862;2023-09-19T03:46:46;9.57;;;3.55;;
60169;SDS011;46042;49.444;6.862;2023-09-19T03:49:13;8.82;;;3.10;;
60169;SDS011;46042;49.444;6.862;2023-09-19T03:51:40;8.48;;;3.00;;
60169;SDS011;46042;49.444;6.862;2023-09-19T03:54:07;7.05;;;2.72;;
60169;SDS011;46042;49.444;6.862;2023-09-19T03:56:34;7.93;;;3.20;;
60169;SDS011;46042;49.444;6.862;2023-09-19T03:59:01;12.45;;;3.00;;
60169;SDS011;46042;49.444;6.862;2023-09-19T04:01:27;9.23;;;3.15;;
60169;SDS011;46042;49.444;6.862;2023-09-19T04:03:55;6.53;;;2.92;;
60169;SDS011;46042;49.444;6.862;2023-09-19T04:06:24;9.50;;;3.05;;
60169;SDS011;46042;49.444;6.862;2023-09-19T04:08:50;8.07;;;3.03;;
60169;SDS011;46042;49.444;6.862;2023-09-19T04:11:18;20.67;;;3.83;;
60169;SDS011;46042;49.444;6.862;2023-09-19T04:13:44;8.30;;;2.97;;
60169;SDS011;46042;49.444;6.862;2023-09-19T04:16:11;9.50;;;3.28;;
60169;SDS011;46042;49.444;6.862;2023-09-19T04:18:38;11.70;;;2.97;;
60169;SDS011;46042;49.444;6.862;2023-09-19T04:21:06;9.93;;;3.42;;
60169;SDS011;46042;49.444;6.862;2023-09-19T04:23:32;10.50;;;2.97;;
60169;SDS011;46042;49.444;6.862;2023-09-19T04:25:59;9.55;;;3.10;;
60169;SDS011;46042;49.444;6.862;2023-09-19T04:28:26;10.98;;;3.65;;
60169;SDS011;46042;49.444;6.862;2023-09-19T04:30:55;8.35;;;3.80;;
60169;SDS011;46042;49.444;6.862;2023-09-19T04:33:22;8.40;;;2.97;;
60169;SDS011;46042;49.444;6.862;2023-09-19T04:35:49;8.57;;;2.95;;
60169;SDS011;46042;49.444;6.862;2023-09-19T04:38:18;16.10;;;3.25;;
60169;SDS011;46042;49.444;6.862;2023-09-19T04:40:46;12.95;;;3.05;;
60169;SDS011;46042;49.444;6.862;2023-09-19T04:43:13;7.72;;;2.97;;
60169;SDS011;46042;49.444;6.862;2023-09-19T04:45:41;8.80;;;3.42;;
60169;SDS011;46042;49.444;6.862;2023-09-19T04:48:10;8.68;;;3.28;;
60169;SDS011;46042;49.444;6.862;2023-09-19T04:50:42;14.40;;;3.13;;
60169;SDS011;46042;49.444;6.862;2023-09-19T04:53:10;11.82;;;3.08;;
60169;SDS011;46042;49.444;6.862;2023-09-19T04:55:37;13.00;;;3.17;;
60169;SDS011;46042;49.444;6.862;2023-09-19T04:58:04;5.85;;;3.22;;
60169;SDS011;46042;49.444;6.862;2023-09-19T05:00:30;11.35;;;3.25;;
60169;SDS011;46042;49.444;6.862;2023-09-19T05:03:02;11.00;;;3.33;;
60169;SDS011;46042;49.444;6.862;2023-09-19T05:05:30;11.65;;;3.25;;
60169;SDS011;46042;49.444;6.862;2023-09-19T05:07:57;8.93;;;2.95;;
60169;SDS011;46042;49.444;6.862;2023-09-19T05:10:32;8.15;;;3.40;;
60169;SDS011;46042;49.444;6.862;2023-09-19T05:12:59;10.57;;;3.20;;
60169;SDS011;46042;49.444;6.862;2023-09-19T05:15:27;8.10;;;3.20;;
60169;SDS011;46042;49.444;6.862;2023-09-19T05:17:54;20.00;;;3.50;;
60169;SDS011;46042;49.444;6.862;2023-09-19T05:20:23;11.68;;;4.30;;
60169;SDS011;46042;49.444;6.862;2023-09-19T05:22:59;11.50;;;3.05;;
60169;SDS011;46042;49.444;6.862;2023-09-19T05:25:32;12.50;;;3.72;;
60169;SDS011;46042;49.444;6.862;2023-09-19T05:27:59;12.30;;;3.90;;
60169;SDS011;46042;49.444;6.862;2023-09-19T05:30:27;8.40;;;3.38;;
60169;SDS011;46042;49.444;6.862;2023-09-19T05:32:53;10.68;;;4.00;;
60169;SDS011;46042;49.444;6.862;2023-09-19T05:35:21;12.60;;;3.88;;
60169;SDS011;46042;49.444;6.862;2023-09-19T05:37:51;9.95;;;3.20;;
60169;SDS011;46042;49.444;6.862;2023-09-19T05:40:19;11.07;;;3.25;;
60169;SDS011;46042;49.444;6.862;2023-09-19T05:42:46;22.25;;;4.57;;
60169;SDS011;46042;49.444;6.862;2023-09-19T05:45:13;12.10;;;3.35;;
60169;SDS011;46042;49.444;6.862;2023-09-19T05:47:41;8.77;;;3.38;;
60169;SDS011;46042;49.444;6.862;2023-09-19T05:50:09;14.73;;;3.20;;
60169;SDS011;46042;49.444;6.862;2023-09-19T05:52:36;8.98;;;3.38;;
60169;SDS011;46042;49.444;6.862;2023-09-19T05:55:06;11.57;;;3.45;;
60169;SDS011;46042;49.444;6.862;2023-09-19T05:57:34;13.00;;;3.50;;
60169;SDS011;46042;49.444;6.862;2023-09-19T06:00:01;16.58;;;3.47;;
60169;SDS011;46042;49.444;6.862;2023-09-19T06:02:36;8.90;;;3.45;;
60169;SDS011;46042;49.444;6.862;2023-09-19T06:05:04;9.38;;;3.25;;
60169;SDS011;46042;49.444;6.862;2023-09-19T06:07:38;9.10;;;4.10;;
60169;SDS011;46042;49.444;6.862;2023-09-19T06:10:04;14.50;;;3.75;;
60169;SDS011;46042;49.444;6.862;2023-09-19T06:12:32;12.27;;;2.92;;
60169;SDS011;46042;49.444;6.862;2023-09-19T06:15:00;15.18;;;3.63;;
60169;SDS011;46042;49.444;6.862;2023-09-19T06:17:26;11.80;;;3.05;;
60169;SDS011;46042;49.444;6.862;2023-09-19T06:19:54;15.63;;;3.58;;
60169;SDS011;46042;49.444;6.862;2023-09-19T06:22:22;10.27;;;3.50;;
60169;SDS011;46042;49.444;6.862;2023-09-19T06:24:51;10.65;;;3.42;;
60169;SDS011;46042;49.444;6.862;2023-09-19T06:27:17;10.00;;;4.28;;
60169;SDS011;46042;49.444;6.862;2023-09-19T06:29:44;13.50;;;3.63;;
60169;SDS011;46042;49.444;6.862;2023-09-19T06:32:11;16.10;;;3.58;;
60169;SDS011;46042;49.444;6.862;2023-09-19T06:34:38;13.70;;;4.43;;
60169;SDS011;46042;49.444;6.862;2023-09-19T06:37:09;10.18;;;3.35;;
60169;SDS011;46042;49.444;6.862;2023-09-19T06:39:38;14.05;;;3.42;;
60169;SDS011;46042;49.444;6.862;2023-09-19T06:42:05;15.70;;;3.50;;
60169;SDS011;46042;49.444;6.862;2023-09-19T06:44:32;18.73;;;3.90;;
60169;SDS011;46042;49.444;6.862;2023-09-19T06:46:59;13.80;;;3.55;;
60169;SDS011;46042;49.444;6.862;2023-09-19T06:49:25;12.80;;;3.72;;
60169;SDS011;46042;49.444;6.862;2023-09-19T06:51:53;17.88;;;3.13;;
60169;SDS011;46042;49.444;6.862;2023-09-19T06:54:21;8.40;;;3.65;;
60169;SDS011;46042;49.444;6.862;2023-09-19T06:56:47;21.25;;;4.38;;
60169;SDS011;46042;49.444;6.862;2023-09-19T06:59:14;9.57;;;2.97;;
60169;SDS011;46042;49.444;6.862;2023-09-19T07:01:41;12.32;;;3.38;;
60169;SDS011;46042;49.444;6.862;2023-09-19T07:04:11;17.88;;;3.47;;
60169;SDS011;46042;49.444;6.862;2023-09-19T07:06:39;13.32;;;3.35;;
60169;SDS011;46042;49.444;6.862;2023-09-19T07:09:07;11.68;;;2.83;;
60169;SDS011;46042;49.444;6.862;2023-09-19T07:11:34;14.63;;;2.85;;
60169;SDS011;46042;49.444;6.862;2023-09-19T07:14:01;14.18;;;3.70;;
60169;SDS011;46042;49.444;6.862;2023-09-19T07:16:29;10.77;;;3.35;;
60169;SDS011;46042;49.444;6.862;2023-09-19T07:18:56;12.10;;;3.22;;
60169;SDS011;46042;49.444;6.862;2023-09-19T07:21:23;14.75;;;4.05;;
60169;SDS011;46042;49.444;6.862;2023-09-19T07:23:50;20.65;;;3.30;;
60169;SDS011;46042;49.444;6.862;2023-09-19T07:26:18;12.25;;;3.47;;
60169;SDS011;46042;49.444;6.862;2023-09-19T07:28:45;11.60;;;3.13;;
60169;SDS011;46042;49.444;6.862;2023-09-19T07:31:12;12.88;;;3.30;;
60169;SDS011;46042;49.444;6.862;2023-09-19T07:33:40;14.32;;;3.25;;
60169;SDS011;46042;49.444;6.862;2023-09-19T07:36:11;11.32;;;3.10;;
60169;SDS011;46042;49.444;6.862;2023-09-19T07:38:41;7.93;;;2.90;;
60169;SDS011;46042;49.444;6.862;2023-09-19T07:41:08;16.48;;;2.85;;
60169;SDS011;46042;49.444;6.862;2023-09-19T07:43:35;11.32;;;3.25;;
60169;SDS011;46042;49.444;6.862;2023-09-19T07:46:07;17.48;;;3.20;;
60169;SDS011;46042;49.444;6.862;2023-09-19T07:48:38;11.23;;;2.85;;
60169;SDS011;46042;49.444;6.862;2023-09-19T07:51:05;16.65;;;3.03;;
60169;SDS011;46042;49.444;6.862;2023-09-19T07:53:34;13.13;;;3.83;;
60169;SDS011;46042;49.444;6.862;2023-09-19T07:56:07;14.30;;;2.78;;
60169;SDS011;46042;49.444;6.862;2023-09-19T07:58:38;9.27;;;3.08;;
60169;SDS011;46042;49.444;6.862;2023-09-19T08:03:35;21.08;;;3.45;;
60169;SDS011;46042;49.444;6.862;2023-09-19T08:06:07;11.10;;;2.88;;
60169;SDS011;46042;49.444;6.862;2023-09-19T08:08:34;14.07;;;3.13;;
60169;SDS011;46042;49.444;6.862;2023-09-19T08:11:04;12.00;;;2.88;;
60169;SDS011;46042;49.444;6.862;2023-09-19T08:13:38;18.00;;;3.08;;
60169;SDS011;46042;49.444;6.862;2023-09-19T08:16:13;14.57;;;3.90;;
60169;SDS011;46042;49.444;6.862;2023-09-19T08:18:41;26.30;;;3.78;;
60169;SDS011;46042;49.444;6.862;2023-09-19T08:21:11;14.77;;;3.25;;
60169;SDS011;46042;49.444;6.862;2023-09-19T08:23:40;23.45;;;4.93;;
60169;SDS011;46042;49.444;6.862;2023-09-19T08:26:08;16.20;;;3.17;;
60169;SDS011;46042;49.444;6.862;2023-09-19T08:28:35;10.60;;;2.63;;
60169;SDS011;46042;49.444;6.862;2023-09-19T08:31:05;12.05;;;3.15;;
60169;SDS011;46042;49.444;6.862;2023-09-19T08:33:33;21.48;;;3.08;;
60169;SDS011;46042;49.444;6.862;2023-09-19T08:36:01;11.80;;;2.75;;
60169;SDS011;46042;49.444;6.862;2023-09-19T08:38:31;11.77;;;2.70;;
60169;SDS011;46042;49.444;6.862;2023-09-19T08:40:59;12.88;;;3.00;;
60169;SDS011;46042;49.444;6.862;2023-09-19T08:43:27;12.00;;;2.83;;
60169;SDS011;46042;49.444;6.862;2023-09-19T08:48:32;12.18;;;3.45;;
60169;SDS011;46042;49.444;6.862;2023-09-19T08:51:06;10.15;;;2.58;;
60169;SDS011;46042;49.444;6.862;2023-09-19T08:56:19;12.48;;;3.05;;
60169;SDS011;46042;49.444;6.862;2023-09-19T08:58:57;12.55;;;2.70;;
60169;SDS011;46042;49.444;6.862;2023-09-19T09:01:29;18.05;;;2.72;;
60169;SDS011;46042;49.444;6.862;2023-09-19T09:03:59;13.52;;;2.70;;
60169;SDS011;46042;49.444;6.862;2023-09-19T09:06:28;13.02;;;3.40;;
60169;SDS011;46042;49.444;6.862;2023-09-19T09:08:55;21.15;;;3.30;;
60169;SDS011;46042;49.444;6.862;2023-09-19T09:11:22;18.60;;;3.03;;
60169;SDS011;46042;49.444;6.862;2023-09-19T09:13:54;10.90;;;2.90;;
60169;SDS011;46042;49.444;6.862;2023-09-19T09:16:21;11.80;;;2.85;;
60169;SDS011;46042;49.444;6.862;2023-09-19T09:18:52;7.70;;;2.50;;
60169;SDS011;46042;49.444;6.862;2023-09-19T09:21:21;12.48;;;3.17;;
60169;SDS011;46042;49.444;6.862;2023-09-19T09:23:51;15.10;;;2.45;;
60169;SDS011;46042;49.444;6.862;2023-09-19T09:29:05;17.95;;;2.97;;
60169;SDS011;46042;49.444;6.862;2023-09-19T09:31:33;15.50;;;3.03;;
60169;SDS011;46042;49.444;6.862;2023-09-19T09:34:00;9.55;;;2.38;;
60169;SDS011;46042;49.444;6.862;2023-09-19T09:36:35;7.38;;;2.75;;
60169;SDS011;46042;49.444;6.862;2023-09-19T09:39:03;7.95;;;1.90;;
60169;SDS011;46042;49.444;6.862;2023-09-19T09:44:15;5.90;;;1.80;;
60169;SDS011;46042;49.444;6.862;2023-09-19T09:46:47;7.18;;;2.00;;
60169;SDS011;46042;49.444;6.862;2023-09-19T09:49:22;13.43;;;2.10;;
60169;SDS011;46042;49.444;6.862;2023-09-19T09:52:02;10.63;;;2.65;;
60169;SDS011;46042;49.444;6.862;2023-09-19T09:54:37;10.30;;;2.70;;
60169;SDS011;46042;49.444;6.862;2023-09-19T10:02:20;5.65;;;2.40;;
60169;SDS011;46042;49.444;6.862;2023-09-19T10:05:00;6.25;;;2.20;;
60169;SDS011;46042;49.444;6.862;2023-09-19T10:07:59;7.43;;;2.55;;
60169;SDS011;46042;49.444;6.862;2023-09-19T10:10:39;21.40;;;3.28;;
60169;SDS011;46042;49.444;6.862;2023-09-19T10:13:10;17.42;;;3.47;;
60169;SDS011;46042;49.444;6.862;2023-09-19T10:15:48;5.78;;;2.15;;
60169;SDS011;46042;49.444;6.862;2023-09-19T10:18:22;6.43;;;2.45;;
60169;SDS011;46042;49.444;6.862;2023-09-19T10:20:50;9.05;;;2.55;;
60169;SDS011;46042;49.444;6.862;2023-09-19T10:23:18;8.95;;;2.42;;
60169;SDS011;46042;49.444;6.862;2023-09-19T10:25:50;11.38;;;3.00;;
60169;SDS011;46042;49.444;6.862;2023-09-19T10:28:19;5.07;;;2.08;;
60169;SDS011;46042;49.444;6.862;2023-09-19T10:30:50;9.63;;;3.03;;
60169;SDS011;46042;49.444;6.862;2023-09-19T10:33:19;16.13;;;2.67;;
60169;SDS011;46042;49.444;6.862;2023-09-19T10:35:53;10.43;;;2.22;;
60169;SDS011;46042;49.444;6.862;2023-09-19T10:38:23;7.50;;;2.65;;
60169;SDS011;46042;49.444;6.862;2023-09-19T10:40:52;10.73;;;2.50;;
60169;SDS011;46042;49.444;6.862;2023-09-19T10:43:21;7.75;;;2.47;;
60169;SDS011;46042;49.444;6.862;2023-09-19T10:45:52;8.98;;;2.17;;
60169;SDS011;46042;49.444;6.862;2023-09-19T10:48:23;6.05;;;2.17;;
60169;SDS011;46042;49.444;6.862;2023-09-19T10:53:45;10.68;;;2.53;;
60169;SDS011;46042;49.444;6.862;2023-09-19T10:56:18;8.35;;;2.33;;
60169;SDS011;46042;49.444;6.862;2023-09-19T10:58:50;4.80;;;2.20;;
60169;SDS011;46042;49.444;6.862;2023-09-19T11:01:18;8.20;;;1.92;;
60169;SDS011;46042;49.444;6.862;2023-09-19T11:03:46;6.35;;;2.22;;
60169;SDS011;46042;49.444;6.862;2023-09-19T11:06:16;8.80;;;2.85;;
60169;SDS011;46042;49.444;6.862;2023-09-19T11:08:55;6.03;;;2.08;;
60169;SDS011;46042;49.444;6.862;2023-09-19T11:11:48;8.25;;;1.98;;
60169;SDS011;46042;49.444;6.862;2023-09-19T11:26:00;5.70;;;2.33;;
60169;SDS011;46042;49.444;6.862;2023-09-19T11:30:37;6.05;;;1.65;;
60169;SDS011;46042;49.444;6.862;2023-09-19T11:36:16;7.90;;;2.00;;
60169;SDS011;46042;49.444;6.862;2023-09-19T11:43:51;5.22;;;2.10;;
60169;SDS011;46042;49.444;6.862;2023-09-19T11:46:23;4.20;;;2.08;;
60169;SDS011;46042;49.444;6.862;2023-09-19T11:48:51;9.40;;;2.80;;
60169;SDS011;46042;49.444;6.862;2023-09-19T11:51:19;11.77;;;2.45;;
60169;SDS011;46042;49.444;6.862;2023-09-19T11:53:54;5.22;;;2.17;;
60169;SDS011;46042;49.444;6.862;2023-09-19T11:56:27;4.18;;;2.00;;
60169;SDS011;46042;49.444;6.862;2023-09-19T11:58:55;6.25;;;2.20;;
60169;SDS011;46042;49.444;6.862;2023-09-19T12:01:29;5.53;;;2.17;;
60169;SDS011;46042;49.444;6.862;2023-09-19T12:03:59;8.43;;;2.17;;
60169;SDS011;46042;49.444;6.862;2023-09-19T12:06:28;6.20;;;2.10;;
60169;SDS011;46042;49.444;6.862;2023-09-19T12:08:56;7.50;;;2.10;;
60169;SDS011;46042;49.444;6.862;2023-09-19T12:11:29;8.20;;;2.20;;
60169;SDS011;46042;49.444;6.862;2023-09-19T12:14:02;3.47;;;1.80;;
60169;SDS011;46042;49.444;6.862;2023-09-19T12:16:30;6.00;;;1.90;;
60169;SDS011;46042;49.444;6.862;2023-09-19T12:19:17;5.53;;;2.15;;
60169;SDS011;46042;49.444;6.862;2023-09-19T12:21:54;6.07;;;2.72;;
60169;SDS011;46042;49.444;6.862;2023-09-19T12:24:26;3.67;;;2.00;;
60169;SDS011;46042;49.444;6.862;2023-09-19T12:27:03;6.28;;;2.08;;
60169;SDS011;46042;49.444;6.862;2023-09-19T12:29:32;3.70;;;2.15;;
60169;SDS011;46042;49.444;6.862;2023-09-19T12:32:11;6.65;;;2.08;;
60169;SDS011;46042;49.444;6.862;2023-09-19T12:34:39;6.03;;;2.13;;
60169;SDS011;46042;49.444;6.862;2023-09-19T12:39:39;7.38;;;2.00;;
60169;SDS011;46042;49.444;6.862;2023-09-19T12:42:10;8.93;;;1.88;;
60169;SDS011;46042;49.444;6.862;2023-09-19T12:44:44;6.45;;;2.25;;
60169;SDS011;46042;49.444;6.862;2023-09-19T12:47:16;3.63;;;2.00;;
60169;SDS011;46042;49.444;6.862;2023-09-19T12:50:05;6.68;;;1.77;;
60169;SDS011;46042;49.444;6.862;2023-09-19T12:52:40;5.78;;;1.88;;
60169;SDS011;46042;49.444;6.862;2023-09-19T12:55:24;3.97;;;1.75;;
60169;SDS011;46042;49.444;6.862;2023-09-19T13:00:45;4.75;;;2.03;;
60169;SDS011;46042;49.444;6.862;2023-09-19T13:03:24;6.20;;;2.05;;
60169;SDS011;46042;49.444;6.862;2023-09-19T13:08:21;6.32;;;1.85;;
60169;SDS011;46042;49.444;6.862;2023-09-19T13:11:35;4.00;;;1.85;;
60169;SDS011;46042;49.444;6.862;2023-09-19T13:13:50;2.70;;;1.65;;
60169;SDS011;46042;49.444;6.862;2023-09-19T13:25:21;4.28;;;2.05;;
60169;SDS011;46042;49.444;6.862;2023-09-19T13:27:49;5.75;;;1.83;;
60169;SDS011;46042;49.444;6.862;2023-09-19T13:30:24;3.28;;;1.77;;
60169;SDS011;46042;49.444;6.862;2023-09-19T13:33:05;3.83;;;1.92;;
60169;SDS011;46042;49.444;6.862;2023-09-19T13:35:33;6.65;;;2.03;;
60169;SDS011;46042;49.444;6.862;2023-09-19T13:38:00;5.53;;;1.95;;
60169;SDS011;46042;49.444;6.862;2023-09-19T13:40:27;3.45;;;2.00;;
60169;SDS011;46042;49.444;6.862;2023-09-19T13:42:58;12.50;;;1.90;;
60169;SDS011;46042;49.444;6.862;2023-09-19T13:45:25;10.82;;;2.35;;
60169;SDS011;46042;49.444;6.862;2023-09-19T13:47:53;4.97;;;2.00;;
60169;SDS011;46042;49.444;6.862;2023-09-19T13:50:20;6.38;;;2.03;;
60169;SDS011;46042;49.444;6.862;2023-09-19T13:52:51;3.33;;;1.90;;
60169;SDS011;46042;49.444;6.862;2023-09-19T13:55:17;6.35;;;2.10;;
60169;SDS011;46042;49.444;6.862;2023-09-19T13:57:47;5.65;;;1.90;;
60169;SDS011;46042;49.444;6.862;2023-09-19T14:00:21;2.97;;;2.17;;
60169;SDS011;46042;49.444;6.862;2023-09-19T14:02:49;5.93;;;2.30;;
60169;SDS011;46042;49.444;6.862;2023-09-19T14:05:17;5.53;;;1.70;;
60169;SDS011;46042;49.444;6.862;2023-09-19T14:07:45;6.30;;;2.53;;
60169;SDS011;46042;49.444;6.862;2023-09-19T14:10:13;5.85;;;2.08;;
60169;SDS011;46042;49.444;6.862;2023-09-19T14:12:40;3.85;;;2.10;;
60169;SDS011;46042;49.444;6.862;2023-09-19T14:15:11;3.35;;;1.90;;
60169;SDS011;46042;49.444;6.862;2023-09-19T14:17:39;4.82;;;1.80;;
60169;SDS011;46042;49.444;6.862;2023-09-19T14:20:09;5.88;;;1.80;;
60169;SDS011;46042;49.444;6.862;2023-09-19T14:22:37;4.18;;;1.95;;
60169;SDS011;46042;49.444;6.862;2023-09-19T14:25:04;5.40;;;2.00;;
60169;SDS011;46042;49.444;6.862;2023-09-19T14:27:31;4.30;;;1.73;;
60169;SDS011;46042;49.444;6.862;2023-09-19T14:29:58;4.10;;;2.10;;
60169;SDS011;46042;49.444;6.862;2023-09-19T14:32:25;3.92;;;1.80;;
60169;SDS011;46042;49.444;6.862;2023-09-19T14:34:52;4.32;;;1.65;;
60169;SDS011;46042;49.444;6.862;2023-09-19T14:37:19;5.55;;;1.65;;
60169;SDS011;46042;49.444;6.862;2023-09-19T14:39:47;10.43;;;2.10;;
60169;SDS011;46042;49.444;6.862;2023-09-19T14:42:14;4.57;;;1.70;;
60169;SDS011;46042;49.444;6.862;2023-09-19T14:44:44;5.32;;;1.75;;
60169;SDS011;46042;49.444;6.862;2023-09-19T14:47:11;6.20;;;1.77;;
60169;SDS011;46042;49.444;6.862;2023-09-19T14:49:40;2.80;;;1.77;;
60169;SDS011;46042;49.444;6.862;2023-09-19T14:52:07;6.38;;;1.92;;
60169;SDS011;46042;49.444;6.862;2023-09-19T14:54:35;5.28;;;1.55;;
60169;SDS011;46042;49.444;6.862;2023-09-19T14:57:08;2.20;;;1.40;;
60169;SDS011;46042;49.444;6.862;2023-09-19T14:59:35;3.42;;;1.80;;
60169;SDS011;46042;49.444;6.862;2023-09-19T15:02:03;3.78;;;1.27;;
60169;SDS011;46042;49.444;6.862;2023-09-19T15:04:31;4.68;;;1.80;;
60169;SDS011;46042;49.444;6.862;2023-09-19T15:06:58;2.55;;;1.50;;
60169;SDS011;46042;49.444;6.862;2023-09-19T15:09:24;2.60;;;1.80;;
60169;SDS011;46042;49.444;6.862;2023-09-19T15:11:56;1.90;;;1.60;;
60169;SDS011;46042;49.444;6.862;2023-09-19T15:14:22;4.35;;;1.73;;
60169;SDS011;46042;49.444;6.862;2023-09-19T15:16:51;7.75;;;1.70;;
60169;SDS011;46042;49.444;6.862;2023-09-19T15:19:18;3.15;;;1.60;;
60169;SDS011;46042;49.444;6.862;2023-09-19T15:21:45;2.90;;;1.65;;
60169;SDS011;46042;49.444;6.862;2023-09-19T15:24:12;2.22;;;1.50;;
60169;SDS011;46042;49.444;6.862;2023-09-19T15:26:38;2.78;;;1.63;;
60169;SDS011;46042;49.444;6.862;2023-09-19T15:29:06;1.98;;;1.38;;
60169;SDS011;46042;49.444;6.862;2023-09-19T15:31:34;2.55;;;1.50;;
60169;SDS011;46042;49.444;6.862;2023-09-19T15:34:03;3.17;;;1.77;;
60169;SDS011;46042;49.444;6.862;2023-09-19T15:36:31;2.30;;;1.40;;
60169;SDS011;46042;49.444;6.862;2023-09-19T15:39:02;2.38;;;1.30;;
60169;SDS011;46042;49.444;6.862;2023-09-19T15:41:41;4.32;;;1.50;;
60169;SDS011;46042;49.444;6.862;2023-09-19T15:44:18;4.78;;;1.58;;
60169;SDS011;46042;49.444;6.862;2023-09-19T15:46:45;2.53;;;1.50;;
60169;SDS011;46042;49.444;6.862;2023-09-19T15:49:13;2.53;;;1.50;;
60169;SDS011;46042;49.444;6.862;2023-09-19T15:51:41;2.17;;;1.30;;
60169;SDS011;46042;49.444;6.862;2023-09-19T15:54:13;4.65;;;1.60;;
60169;SDS011;46042;49.444;6.862;2023-09-19T15:56:42;3.35;;;1.50;;
60169;SDS011;46042;49.444;6.862;2023-09-19T15:59:10;4.32;;;2.08;;
60169;SDS011;46042;49.444;6.862;2023-09-19T16:01:40;4.47;;;1.67;;
60169;SDS011;46042;49.444;6.862;2023-09-19T16:04:09;3.47;;;1.73;;
60169;SDS011;46042;49.444;6.862;2023-09-19T16:06:37;5.18;;;1.58;;
60169;SDS011;46042;49.444;6.862;2023-09-19T16:09:04;4.03;;;1.63;;
60169;SDS011;46042;49.444;6.862;2023-09-19T16:11:32;2.47;;;1.52;;
60169;SDS011;46042;49.444;6.862;2023-09-19T16:14:00;2.22;;;1.38;;
60169;SDS011;46042;49.444;6.862;2023-09-19T16:16:28;3.10;;;1.52;;
60169;SDS011;46042;49.444;6.862;2023-09-19T16:18:58;3.90;;;1.40;;